Map

Track Data

SID SEASON NUMBER BASIN SUBBASIN NAME ISO_TIME NATURE LAT LON WMO_WIND WMO_PRES WMO_AGENCY TRACK_TYPE DIST2LAND LANDFALL IFLAG USA_AGENCY USA_ATCF_ID USA_LAT USA_LON USA_RECORD USA_STATUS USA_WIND USA_PRES USA_SSHS USA_R34_NE USA_R34_SE USA_R34_SW USA_R34_NW USA_R50_NE USA_R50_SE USA_R50_SW USA_R50_NW USA_R64_NE USA_R64_SE USA_R64_SW USA_R64_NW USA_POCI USA_ROCI USA_RMW USA_EYE TOKYO_LAT TOKYO_LON TOKYO_GRADE TOKYO_WIND TOKYO_PRES TOKYO_R50_DIR TOKYO_R50_LONG TOKYO_R50_SHORT TOKYO_R30_DIR TOKYO_R30_LONG TOKYO_R30_SHORT TOKYO_LAND CMA_LAT CMA_LON CMA_CAT CMA_WIND CMA_PRES HKO_LAT HKO_LON HKO_CAT HKO_WIND HKO_PRES NEWDELHI_LAT NEWDELHI_LON NEWDELHI_GRADE NEWDELHI_WIND NEWDELHI_PRES NEWDELHI_CI NEWDELHI_DP NEWDELHI_POCI REUNION_LAT REUNION_LON REUNION_TYPE REUNION_WIND REUNION_PRES REUNION_TNUM REUNION_CI REUNION_RMW REUNION_R34_NE REUNION_R34_SE REUNION_R34_SW REUNION_R34_NW REUNION_R50_NE REUNION_R50_SE REUNION_R50_SW REUNION_R50_NW REUNION_R64_NE REUNION_R64_SE REUNION_R64_SW REUNION_R64_NW BOM_LAT BOM_LON BOM_TYPE BOM_WIND BOM_PRES BOM_TNUM BOM_CI BOM_RMW BOM_R34_NE BOM_R34_SE BOM_R34_SW BOM_R34_NW BOM_R50_NE BOM_R50_SE BOM_R50_SW BOM_R50_NW BOM_R64_NE BOM_R64_SE BOM_R64_SW BOM_R64_NW BOM_ROCI BOM_POCI BOM_EYE BOM_POS_METHOD BOM_PRES_METHOD NADI_LAT NADI_LON NADI_CAT NADI_WIND NADI_PRES WELLINGTON_LAT WELLINGTON_LON WELLINGTON_WIND WELLINGTON_PRES DS824_LAT DS824_LON DS824_STAGE DS824_WIND DS824_PRES TD9636_LAT TD9636_LON TD9636_STAGE TD9636_WIND TD9636_PRES TD9635_LAT TD9635_LON TD9635_WIND TD9635_PRES TD9635_ROCI NEUMANN_LAT NEUMANN_LON NEUMANN_CLASS NEUMANN_WIND NEUMANN_PRES MLC_LAT MLC_LON MLC_CLASS MLC_WIND MLC_PRES USA_GUST BOM_GUST BOM_GUST_PER REUNION_GUST REUNION_GUST_PER USA_SEAHGT USA_SEARAD_NE USA_SEARAD_SE USA_SEARAD_SW USA_SEARAD_NW STORM_SPEED STORM_DIR
1973024S12054 1973 15 SI MM HORTENSE 1973-01-24 06:00:00 TS -12.1400 54.3600 reunion main 499 479 O____O___OO_O_ jtwc_sh SH161973 -11.9000 54.6000 -1 -12.5000 54.0000 3 9.90000 -11.9000 54.6000 TC 25 -11.9000 54.6000 1 -12.5000 54.0000 TC 35 5 201
1973024S12054 1973 15 SI MM HORTENSE 1973-01-24 09:00:00 TS -12.3793 54.2693 main 479 463 P____P___PP_P_ SH161973 -12.1525 54.4326 -1 -12.7300 54.0000 3 -12.1525 54.4326 TC 25 -12.1313 54.4814 1 -12.7300 54.0000 TC 35 5 200
1973024S12054 1973 15 SI MM HORTENSE 1973-01-24 12:00:00 TS -12.5940 54.1940 reunion main 463 447 O____O___OP_O_ jtwc_sh SH161973 -12.4000 54.3000 -1 -12.9000 54.0000 99 9.90000 -12.4000 54.3000 TC 25 -12.3701 54.3702 1 -12.9000 54.0000 TC 35 4 196
1973024S12054 1973 15 SI MM HORTENSE 1973-01-24 15:00:00 TS -12.7758 54.1458 main 447 442 P____P___PP_P_ SH161973 -12.6425 54.2275 -1 -12.9850 54.0000 99 -12.6425 54.2275 TC 25 -12.6238 54.2739 1 -12.9850 54.0000 TC 35 4 190
1973024S12054 1973 15 SI MM HORTENSE 1973-01-24 18:00:00 TS -12.9800 54.1200 reunion main 442 436 O____O___OO_O_ jtwc_sh SH161973 -12.9000 54.2000 -1 -13.1000 54.0000 99 9.90000 -12.9000 54.2000 TC 25 -12.9000 54.2000 1 -13.1000 54.0000 TC 35 5 185
1973024S12054 1973 15 SI MM HORTENSE 1973-01-24 21:00:00 TS -13.2744 54.1106 main 436 427 P____P___PP_P_ SH161973 -13.1925 54.1999 -1 -13.3925 54.0000 99 -13.1925 54.1999 TC 25 -13.2018 54.1533 1 -13.3925 54.0000 TC 35 6 0
1973024S12054 1973 15 SI MM HORTENSE 1973-01-25 00:00:00 TS -13.5830 54.1055 reunion main 427 418 O____O___OP_O_ jtwc_sh SH161973 -13.5000 54.2000 -1 -13.7000 54.0000 99 9.90000 -13.5000 54.2000 TC 25 -13.5150 54.1274 1 -13.7000 54.0000 TC 35 6 182
1973024S12054 1973 15 SI MM HORTENSE 1973-01-25 03:00:00 TS -13.8391 54.0826 main 418 410 P____P___PP_P_ SH161973 -13.8150 54.1500 -1 -13.8725 54.0000 99 -13.8150 54.1500 TC 30 -13.8206 54.1127 1 -13.8725 54.0000 TC 35 5 184
1973024S12054 1973 15 SI MM HORTENSE 1973-01-25 06:00:00 TS -14.0600 54.0600 reunion main 406 403 O____O___OO_O_ jtwc_sh SH161973 -14.1000 54.1000 -1 -14.0000 54.0000 3 9.90000 -14.1000 54.1000 TC 35 -14.1000 54.1000 2 -14.0000 54.0000 TC 35 4 184
1973024S12054 1973 15 SI MM HORTENSE 1973-01-25 09:00:00 TS -14.2436 54.0534 main 403 386 P____P___PP_P_ SH161973 -14.3150 54.1000 -1 -14.1275 54.0000 3 -14.3150 54.1000 TC 35 -14.3328 54.0669 2 -14.1275 54.0000 TC 35 4 0
1973024S12054 1973 15 SI MM HORTENSE 1973-01-25 12:00:00 TS -14.4275 54.0470 reunion main 386 380 O____O___OP_O_ jtwc_sh SH161973 -14.5000 54.1000 -1 -14.3000 54.0000 99 9.90000 -14.5000 54.1000 TC 35 -14.5375 54.0350 2 -14.3000 54.0000 TC 35 4 186
1973024S12054 1973 15 SI MM HORTENSE 1973-01-25 15:00:00 TS -14.6677 54.0192 main 380 377 P____P___PP_P_ SH161973 -14.7000 54.0425 -1 -14.6075 54.0000 99 -14.7000 54.0425 TC 35 -14.7234 54.0107 2 -14.6075 54.0000 TC 35 5 186
1973024S12054 1973 15 SI MM HORTENSE 1973-01-25 18:00:00 TS -14.9000 54.0000 reunion main 377 375 O____O___OO_O_ jtwc_sh SH161973 -14.9000 54.0000 -1 -14.9000 54.0000 99 9.90000 -14.9000 54.0000 TC 35 -14.9000 54.0000 2 -14.9000 54.0000 TC 35 4 0
1973024S12054 1973 15 SI MM HORTENSE 1973-01-25 21:00:00 TS -15.0662 54.0264 main 375 375 P____P___PP_P_ SH161973 -15.1075 54.0424 -1 -15.0150 54.0000 99 -15.1075 54.0424 TC 35 -15.0862 54.0469 2 -15.0150 54.0000 TC 37 3 169
1973024S12054 1973 15 SI MM HORTENSE 1973-01-26 00:00:00 TS -15.2130 54.0604 reunion main 386 386 O____O___OP_O_ jtwc_sh SH161973 -15.3000 54.1000 -1 -15.1000 54.0000 99 9.90000 -15.3000 54.1000 TC 35 -15.2649 54.1021 2 -15.1000 54.0000 TC 40 3 170
1973024S12054 1973 15 SI MM HORTENSE 1973-01-26 03:00:00 TS -15.3782 54.0842 main 386 386 P____P___PP_P_ SH161973 -15.4575 54.1300 -1 -15.2700 54.0149 99 -15.4575 54.1300 TC 35 -15.4362 54.1313 2 -15.2700 54.0149 TC 42 3 182
1973024S12054 1973 15 SI MM HORTENSE 1973-01-26 06:00:00 TS -15.5600 54.0600 reunion main 386 375 O____O___OO_O_ jtwc_sh SH161973 -15.6000 54.1000 -1 -15.5000 54.0000 3 9.90000 -15.6000 54.1000 TC 35 -15.6000 54.1000 2 -15.5000 54.0000 TC 45 4 196
1973024S12054 1973 15 SI MM HORTENSE 1973-01-26 09:00:00 TS -15.7798 53.9662 main 377 357 P____P___PP_P_ SH161973 -15.7500 53.9875 -1 -15.8150 53.9375 3 -15.7500 53.9875 TC 35 -15.7693 53.9811 2 -15.8150 53.9375 TC 47 5 210
1973024S12054 1973 15 SI MM HORTENSE 1973-01-26 12:00:00 TS -15.9860 53.7995 reunion main 359 341 O____O___OP_O_ jtwc_sh SH161973 -15.9000 53.8000 -1 -16.1000 53.8000 99 9.90000 -15.9000 53.8000 TC 35 -15.9299 53.7977 2 -16.1000 53.8000 TC 50 5 228
1973024S12054 1973 15 SI MM HORTENSE 1973-01-26 15:00:00 TS -16.1211 53.5680 main 341 312 P____P___PP_P_ SH161973 -16.0575 53.5725 -1 -16.2076 53.5649 99 -16.0575 53.5725 TC 35 -16.0756 53.5654 2 -16.2076 53.5649 TC 52 5 242
1973024S12054 1973 15 SI MM HORTENSE 1973-01-26 18:00:00 TS -16.2400 53.3000 reunion main 312 299 O____O___OO_O_ jtwc_sh SH161973 -16.2000 53.3000 -1 -16.3000 53.3000 99 9.90000 -16.2000 53.3000 TC 35 -16.2000 53.3000 2 -16.3000 53.3000 TC 55 6 240
1973024S12054 1973 15 SI MM HORTENSE 1973-01-26 21:00:00 TS -16.4121 53.0539 main 299 275 P____P___PP_P_ SH161973 -16.3150 53.0075 -1 -16.5649 53.1151 99 -16.3150 53.0075 TC 35 -16.3007 53.0246 2 -16.5649 53.1151 TC 57 6 237
1973024S12054 1973 15 SI MM HORTENSE 1973-01-27 00:00:00 TS -16.5560 52.7845 reunion main 279 250 O____O___OP_O_ jtwc_sh SH161973 -16.4000 52.7000 -1 -16.8000 52.9000 99 9.90000 -16.4000 52.7000 TC 35 -16.3801 52.7224 2 -16.8000 52.9000 TC 60 6 251
1973024S12054 1973 15 SI MM HORTENSE 1973-01-27 03:00:00 TS -16.6099 52.4647 main 250 221 P____P___PP_P_ SH161973 -16.4575 52.3999 -1 -16.8451 52.5574 99 -16.4575 52.3999 TC 35 -16.4444 52.4090 2 -16.8451 52.5574 TC 60 6 264
1973024S12054 1973 15 SI MM HORTENSE 1973-01-27 06:00:00 TS -16.6200 52.1400 reunion main 212 192 O____O___OO_O_ jtwc_sh SH161973 -16.5000 52.1000 -1 -16.8000 52.2000 4 9.90000 -16.5000 52.1000 TC 35 -16.5000 52.1000 2 -16.8000 52.2000 TC 60 6 267
1973024S12054 1973 15 SI MM HORTENSE 1973-01-27 09:00:00 TS -16.6395 51.8611 main 192 163 P____P___PP_P_ SH161973 -16.5500 51.7925 -1 -16.7723 51.9576 4 -16.5500 51.7925 TC 35 -16.5531 51.8055 2 -16.7723 51.9576 TC 62 5 268
1973024S12054 1973 15 SI MM HORTENSE 1973-01-27 12:00:00 TS -16.6400 51.5840 reunion main 163 135 O____O___OP_O_ jtwc_sh SH161973 -16.6000 51.5000 -1 -16.7000 51.7000 99 9.90000 -16.6000 51.5000 TC 35 -16.6000 51.5199 2 -16.7000 51.7000 TC 65 6 274
1973024S12054 1973 15 SI MM HORTENSE 1973-01-27 15:00:00 TS -16.6034 51.2698 main 135 108 P____P___PP_P_ SH161973 -16.6425 51.2350 -1 -16.5426 51.3148 99 -16.6425 51.2350 TC 35 -16.6469 51.2493 2 -16.5426 51.3148 TC 65 6 276
1973024S12054 1973 15 SI MM HORTENSE 1973-01-27 18:00:00 TS -16.5800 50.9600 reunion main 108 85 O____O___OO_O_ jtwc_sh SH161973 -16.7000 51.0000 -1 -16.4000 50.9000 99 9.90000 -16.7000 51.0000 TC 35 -16.7000 51.0000 2 -16.4000 50.9000 TC 65 5 268
1973024S12054 1973 15 SI MM HORTENSE 1973-01-27 21:00:00 TS -16.6260 50.6992 main 85 75 P____P___PP_P_ SH161973 -16.8000 50.7925 -1 -16.3774 50.5501 99 -16.8000 50.7925 TC 35 -16.7755 50.8109 2 -16.3774 50.5501 TC 62 5 257
1973024S12054 1973 15 SI MM HORTENSE 1973-01-28 00:00:00 TS -16.6914 50.4475 reunion main 64 44 O____O___OP_O_ jtwc_sh SH161973 -16.9000 50.6000 -1 -16.4000 50.2000 99 9.90000 -16.9000 50.6000 TC 35 -16.8568 50.6374 2 -16.4000 50.2000 TC 60 5 258
1973024S12054 1973 15 SI MM HORTENSE 1973-01-28 03:00:00 TS -16.7269 50.1840 main 44 10 P____P___PP_P_ SH161973 -16.9574 50.4299 -1 -16.3925 49.8075 99 -16.9574 50.4299 TC 35 -16.9348 50.4453 2 -16.3925 49.8075 TC 55 5 263
1973024S12054 1973 15 SI MM HORTENSE 1973-01-28 06:00:00 TS -16.7600 49.8800 reunion main 10 0 O____O___OO_O_ jtwc_sh SH161973 -17.0000 50.2000 -1 -16.4000 49.4000 4 9.90000 -17.0000 50.2000 TC 35 -17.0000 50.2000 2 -16.4000 49.4000 TC 50 7 263
1973024S12054 1973 15 SI MM HORTENSE 1973-01-28 09:00:00 TS -16.8011 49.5073 main 0 0 P____P___PP_P_ SH161973 -17.0576 49.8300 -1 -16.4274 49.0074 4 -17.0576 49.8300 TC 35 -17.0355 49.8614 2 -16.4274 49.0074 TC 45 8 263
1973024S12054 1973 15 SI MM HORTENSE 1973-01-28 12:00:00 TS -16.8515 49.0934 reunion main 0 0 O____O___OP_O_ jtwc_sh SH161973 -17.1000 49.4000 -1 -16.5000 48.6000 99 9.90000 -17.1000 49.4000 TC 35 -17.0577 49.4672 2 -16.5000 48.6000 TC 40 8 262
1973024S12054 1973 15 SI MM HORTENSE 1973-01-28 15:00:00 TS -16.9152 48.6679 main 0 0 P____P___PP_P_ SH161973 -17.1074 49.0000 -1 -16.6425 48.1501 99 -17.1074 49.0000 TC 35 -17.0760 49.0395 2 -16.6425 48.1501 TC 37 8 261
1973024S12054 1973 15 SI MM HORTENSE 1973-01-28 18:00:00 TS -16.9800 48.2400 reunion main 0 0 O____O___OO_O_ jtwc_sh SH161973 -17.1000 48.6000 -1 -16.8000 47.7000 99 9.90000 -17.1000 48.6000 TC 35 -17.1000 48.6000 2 -16.8000 47.7000 TC 35 8 263
1973024S12054 1973 15 SI MM HORTENSE 1973-01-28 21:00:00 TS -17.0075 47.8345 main 0 0 P____P___PP_P_ SH161973 -17.0849 48.2074 -1 -16.8849 47.2923 99 -17.0849 48.2074 TC 35 -17.0981 48.1734 2 -16.8849 47.2923 TC 32 8 264
1973024S12054 1973 15 SI MM HORTENSE 1973-01-29 00:00:00 TS -17.0620 47.4283 reunion main 0 0 O____O___OP_O_ jtwc_sh SH161973 -17.1000 47.8000 -1 -17.0000 46.9000 99 9.90000 -17.1000 47.8000 TC 35 -17.1099 47.7415 2 -17.0000 46.9000 TC 30 8 257
1973024S12054 1973 15 SI MM HORTENSE 1973-01-29 03:00:00 TS -17.1833 47.0057 main 0 0 P____P___PP_P_ SH161973 -17.1550 47.3499 -1 -17.2199 46.5074 99 -17.1550 47.3499 TC 35 -17.1668 47.3139 2 -17.2199 46.5074 TC 27 9 249
1973024S12054 1973 15 SI MM HORTENSE 1973-01-29 06:00:00 TS -17.3800 46.5800 reunion main 0 0 O____O___OO_O_ jtwc_sh SH161973 -17.3000 46.9000 -1 -17.5000 46.1000 6 9.90000 -17.3000 46.9000 TC 35 -17.3000 46.9000 2 -17.5000 46.1000 TC 25 10 241
1973024S12054 1973 15 SI MM HORTENSE 1973-01-29 09:00:00 TS -17.6452 46.1340 main 0 0 P____P___PP_P_ SH161973 -17.5624 46.4850 -1 -17.7777 45.6126 6 -17.5624 46.4850 TC 35 -17.5460 46.4749 2 -17.7777 45.6126 TC 22 10 234
1973024S12054 1973 15 SI MM HORTENSE 1973-01-29 12:00:00 TS -17.9735 45.7337 reunion main 0 0 O____O___OP_O_ jtwc_sh SH161973 -17.9000 46.1000 -1 -18.1000 45.2000 99 9.90000 -17.9000 46.1000 TC 35 -17.8677 46.0687 2 -18.1000 45.2000 TC 20 10 224
1973024S12054 1973 15 SI MM HORTENSE 1973-01-29 15:00:00 TS -18.3370 45.4365 main 0 0 P____P___PP_P_ SH161973 -18.2500 45.7200 -1 -18.4773 45.0196 99 -18.2500 45.7200 TC 35 -18.2305 45.7030 2 -18.4773 45.0196 TC 20 9 214
1973024S12054 1973 15 SI MM HORTENSE 1973-01-29 18:00:00 TS -18.7200 45.2000 reunion main 0 0 O____O___OO_O_ jtwc_sh SH161973 -18.6000 45.4000 -1 -18.9000 44.9000 99 9.90000 -18.6000 45.4000 TC 35 -18.6000 45.4000 2 -18.9000 44.9000 TC 20 9 212
1973024S12054 1973 15 SI MM HORTENSE 1973-01-29 21:00:00 TS -19.0735 44.9495 main 0 0 P____P___PP_P_ SH161973 -18.8999 45.1623 -1 -19.3276 44.6352 99 -18.8999 45.1623 TC 35 -18.9124 45.1525 2 -19.3276 44.6352 TC 20 8 210
1973024S12054 1973 15 SI MM HORTENSE 1973-01-30 00:00:00 TS -19.4454 44.7545 reunion main 0 0 O____O___OP_O_ jtwc_sh SH161973 -19.2000 45.0000 -1 -19.8000 44.4000 99 9.90000 -19.2000 45.0000 TC 35 -19.2271 44.9723 2 -19.8000 44.4000 TC 20 9 200
1973024S12054 1973 15 SI MM HORTENSE 1973-01-30 03:00:00 TS -19.8736 44.6381 main 0 0 P____P___PP_P_ SH161973 -19.5350 44.8700 -1 -20.3724 44.2974 99 -19.5350 44.8700 TC 35 -19.5532 44.8559 2 -20.3724 44.2974 TC 20 9 190
1973024S12054 1973 15 SI MM HORTENSE 1973-01-30 06:00:00 TS -20.3000 44.6000 reunion main 0 0 O____O___OO_O_ jtwc_sh SH161973 -19.9000 44.8000 -1 -20.9000 44.3000 6 9.90000 -19.9000 44.8000 TC 35 -19.9000 44.8000 2 -20.9000 44.3000 TC 20 8 183
1973024S12054 1973 15 SI MM HORTENSE 1973-01-30 09:00:00 TS -20.6739 44.6036 main 0 0 P____P___PP_P_ SH161973 -20.2925 44.7700 -1 -21.2449 44.3550 6 -20.2925 44.7700 TC 35 -20.2945 44.7679 2 -21.2449 44.3550 TC 20 7 174
1973024S12054 1973 15 SI MM HORTENSE 1973-01-30 12:00:00 TS -21.0215 44.6790 reunion main 0 0 O____O___OP_O_ jtwc_sh SH161973 -20.7000 44.8000 -1 -21.5000 44.5000 99 9.90000 -20.7000 44.8000 TC 35 -20.7073 44.7948 2 -21.5000 44.5000 TC 20 7 164
1973024S12054 1973 15 SI MM HORTENSE 1973-01-30 15:00:00 TS -21.3723 44.8168 main 0 0 P____P___PP_P_ SH161973 -21.1150 44.8775 -1 -21.7575 44.7275 99 -21.1150 44.8775 TC 35 -21.1164 44.8743 2 -21.7575 44.7275 TC 20 7 156
1973024S12054 1973 15 SI MM HORTENSE 1973-01-30 18:00:00 TS -21.7000 45.0000 reunion main 0 0 O____O___OO_O_ jtwc_sh SH161973 -21.5000 45.0000 -1 -22.0000 45.0000 99 9.90000 -21.5000 45.0000 TC 35 -21.5000 45.0000 2 -22.0000 45.0000 TC 20 7 152
1973024S12054 1973 15 SI MM HORTENSE 1973-01-30 21:00:00 TS -21.9941 45.1776 main 0 0 P____P___PP_P_ SH161973 -21.8149 45.1276 -1 -22.2500 45.2501 99 -21.8149 45.1276 TC 35 -21.8408 45.1326 2 -22.2500 45.2501 TC 20 7 148
1973024S12054 1973 15 SI MM HORTENSE 1973-01-31 00:00:00 TS -22.2704 45.3820 reunion main 0 0 O____O___OP_O_ jtwc_sh SH161973 -22.1000 45.3000 -1 -22.5000 45.5000 99 9.90000 -22.1000 45.3000 TC 35 -22.1522 45.3102 2 -22.5000 45.5000 TC 20 7 144
1973024S12054 1973 15 SI MM HORTENSE 1973-01-31 03:00:00 TS -22.5444 45.6087 main 0 0 P____P___PP_P_ SH161973 -22.4075 45.5275 -1 -22.7348 45.7278 99 -22.4075 45.5275 TC 35 -22.4375 45.5327 2 -22.7348 45.7278 TC 20 7 140
1973024S12054 1973 15 SI MM HORTENSE 1973-01-31 06:00:00 TS -22.8200 45.8800 reunion main 0 0 O____O___OO_O_ jtwc_sh SH161973 -22.7000 45.8000 -1 -23.0000 46.0000 6 9.90000 -22.7000 45.8000 TC 35 -22.7000 45.8000 2 -23.0000 46.0000 TC 20 8 136
1973024S12054 1973 15 SI MM HORTENSE 1973-01-31 09:00:00 TS -23.1229 46.2044 main 0 0 P____P___PP_P_ SH161973 -22.9649 46.0776 -1 -23.3652 46.3921 6 -22.9649 46.0776 TC 35 -22.9544 46.0828 2 -23.3652 46.3921 TC 20 9 133
1973024S12054 1973 15 SI MM HORTENSE 1973-01-31 12:00:00 TS -23.3974 46.5621 reunion main 0 0 O____O___OP_O_ jtwc_sh SH161973 -23.2000 46.4000 -1 -23.7000 46.8000 99 9.90000 -23.2000 46.4000 TC 35 -23.1870 46.4104 2 -23.7000 46.8000 TC 20 8 126
1973024S12054 1973 15 SI MM HORTENSE 1973-01-31 15:00:00 TS -23.5951 46.9078 main 0 0 P____P___PP_P_ SH161973 -23.3999 46.7777 -1 -23.8872 47.1004 99 -23.3999 46.7777 TC 35 -23.4011 46.7829 2 -23.8872 47.1004 TC 20 8 119
1973024S12054 1973 15 SI MM HORTENSE 1973-01-31 18:00:00 TS -23.7600 47.2800 reunion main 0 0 O____O___OO_O_ jtwc_sh SH161973 -23.6000 47.2000 -1 -24.0000 47.4000 99 9.90000 -23.6000 47.2000 TC 35 -23.6000 47.2000 2 -24.0000 47.4000 TC 20 8 116
1973024S12054 1973 15 SI MM HORTENSE 1973-01-31 21:00:00 TS -23.9501 47.6898 main 20 20 P____P___PP_P_ SH161973 -23.8648 47.6274 -1 -24.1000 47.7852 99 -23.8648 47.6274 TC 35 -23.8212 47.6240 2 -24.1000 47.7852 TC 25 9 115
1973024S12054 1973 15 SI MM HORTENSE 1973-02-01 00:00:00 TS -24.1248 48.1388 reunion main 61 61 O____O___OP_O_ jtwc_sh SH161973 -24.1000 48.1000 -1 -24.2000 48.2000 99 9.90000 -24.1000 48.1000 TC 35 -24.0238 48.0942 2 -24.2000 48.2000 TC 30 9 111
1973024S12054 1973 15 SI MM HORTENSE 1973-02-01 03:00:00 TS -24.2756 48.5965 main 116 116 P____P___PP_P_ SH161973 -24.2372 48.6126 -1 -24.3571 48.5700 99 -24.2372 48.6126 TC 35 -24.1895 48.6175 2 -24.3571 48.5700 TC 32 9 106
1973024S12054 1973 15 SI MM HORTENSE 1973-02-01 06:00:00 MX -24.3800 49.1200 reunion main 168 168 O____O___OO_O_ jtwc_sh SH161973 -24.3000 49.2000 -1 -24.5000 49.0000 3 9.90000 -24.3000 49.2000 TC 35 -24.3000 49.2000 2 -24.5000 49.0000 EX 35 10 99
1973024S12054 1973 15 SI MM HORTENSE 1973-02-01 09:00:00 MX -24.4423 49.7309 main 227 227 P____P___PP_P_ SH161973 -24.3225 49.8776 -1 -24.6170 49.5318 3 -24.3225 49.8776 TC 35 -24.3324 49.8356 2 -24.6170 49.5318 EX 37 12 92
1973024S12054 1973 15 SI MM HORTENSE 1973-02-01 12:00:00 MX -24.4219 50.4253 reunion main 296 296 O____O___OP_O_ jtwc_sh SH161973 -24.3000 50.6000 -1 -24.6000 50.2000 99 9.90000 -24.3000 50.6000 TC 35 -24.3097 50.5267 2 -24.6000 50.2000 EX 40 13 83
1973024S12054 1973 15 SI MM HORTENSE 1973-02-01 15:00:00 MX -24.2864 51.1794 main 369 369 P____P___PP_P_ SH161973 -24.2496 51.2927 -1 -24.3378 51.0286 99 -24.2496 51.2927 TC 35 -24.2571 51.2542 2 -24.3378 51.0286 EX 40 14 78
1973024S12054 1973 15 SI MM HORTENSE 1973-02-01 18:00:00 MX -24.1200 51.9600 reunion main 444 402 O____O___OO_O_ jtwc_sh SH161973 -24.2000 52.0000 -1 -24.0000 51.9000 99 9.90000 -24.2000 52.0000 TC 35 -24.2000 52.0000 2 -24.0000 51.9000 EX 40 14 80
1973024S12054 1973 15 SI MM HORTENSE 1973-02-01 21:00:00 MX -24.0315 52.7165 main 402 359 P____P___PP_P_ SH161973 -24.1997 52.7423 -1 -23.7993 52.6566 99 -24.1997 52.7423 TC 35 -24.1595 52.7847 2 -23.7993 52.6566 EX 37 14 83
1973024S12054 1973 15 SI MM HORTENSE 1973-02-02 00:00:00 MX -23.9443 53.4751 reunion main 344 301 O____O___OP_O_ jtwc_sh SH161973 -24.2000 53.5000 -1 -23.6000 53.4000 99 9.90000 -24.2000 53.5000 TC 35 -24.1212 53.5756 2 -23.6000 53.4000 EX 35 14 80
1973024S12054 1973 15 SI MM HORTENSE 1973-02-02 03:00:00 MX -23.7906 54.2731 main 297 264 P____P___PP_P_ SH161973 -24.1502 54.2952 -1 -23.2776 54.2232 99 -24.1502 54.2952 TC 35 -24.0972 54.3286 2 -23.2776 54.2232 EX 35 14 78
1973024S12054 1973 15 SI MM HORTENSE 1973-02-02 06:00:00 MX -23.6600 55.0000 reunion main 264 246 O____O___OO_O_ jtwc_sh SH161973 -24.1000 55.0000 -1 -23.0000 55.0000 5 9.90000 -24.1000 55.0000 TC 35 -24.1000 55.0000 2 -23.0000 55.0000 EX 35 12 81
1973024S12054 1973 15 SI MM HORTENSE 1973-02-02 09:00:00 MX -23.6169 55.5389 main 246 245 P____P___PP_P_ SH161973 -24.0694 55.4951 -1 -22.9117 55.6143 5 -24.0694 55.4951 TC 35 -24.1224 55.4760 2 -22.9117 55.6143 EX 32 9 88
1973024S12054 1973 15 SI MM HORTENSE 1973-02-02 12:00:00 MX -23.6355 56.0158 reunion main 249 249 O____O___OP_O_ jtwc_sh SH161973 -24.1000 55.9000 -1 -22.9000 56.2000 99 9.90000 -24.1000 55.9000 TC 35 -24.1775 55.8789 2 -22.9000 56.2000 EX 30 9 94
1973024S12054 1973 15 SI MM HORTENSE 1973-02-02 15:00:00 MX -23.6724 56.5287 main 273 273 P____P___PP_P_ SH161973 -24.2193 56.2977 -1 -22.8273 56.8778 99 -24.2193 56.2977 TC 35 -24.2691 56.2922 2 -22.8273 56.8778 EX 30 10 97
1973024S12054 1973 15 SI MM HORTENSE 1973-02-02 18:00:00 MX -23.7600 57.1200 reunion main 309 309 O____O___OO_O_ jtwc_sh SH161973 -24.4000 56.8000 -1 -22.8000 57.6000 99 9.90000 -24.4000 56.8000 TC 35 -24.4000 56.8000 2 -22.8000 57.6000 EX 30 12 100
1973024S12054 1973 15 SI MM HORTENSE 1973-02-02 21:00:00 MX -23.8870 57.8615 main 361 361 P____P___PP_P_ SH161973 -24.5927 57.5400 -1 -22.8397 58.3354 99 -24.5927 57.5400 TC 35 -24.5706 57.5564 2 -22.8397 58.3354 EX 30 15 102
1973024S12054 1973 15 SI MM HORTENSE 1973-02-03 00:00:00 MX -24.0747 58.6821 reunion main 415 415 O____O___OP_O_ jtwc_sh SH161973 -24.8000 58.4000 -1 -23.0000 59.1000 99 9.90000 -24.8000 58.4000 TC 35 -24.7736 58.4106 2 -23.0000 59.1000 EX 30 16 105
1973024S12054 1973 15 SI MM HORTENSE 1973-02-03 03:00:00 MX -24.3110 59.5379 main 463 463 P____P___PP_P_ SH161973 -25.0077 59.2799 -1 -23.2751 59.9226 99 -25.0077 59.2799 TC 35 -24.9893 59.2847 2 -23.2751 59.9226 EX 30 16 109
1973024S12054 1973 15 SI MM HORTENSE 1973-02-03 06:00:00 MX -24.6000 60.3400 reunion main 530 530 O____O___OO_O_ jtwc_sh SH161973 -25.2000 60.1000 -1 -23.7000 60.7000 5 9.90000 -25.2000 60.1000 TC 35 -25.2000 60.1000 2 -23.7000 60.7000 EX 30 14 115
1973024S12054 1973 15 SI MM HORTENSE 1973-02-03 09:00:00 MX -24.9187 60.9803 main 596 596 P____P___PP_P_ SH161973 -25.3493 60.7455 -1 -24.2620 61.3451 5 -25.3493 60.7455 TC 35 -25.3709 60.7202 2 -24.2620 61.3451 EX 30 13 122
1973024S12054 1973 15 SI MM HORTENSE 1973-02-03 12:00:00 MX -25.2676 61.5350 reunion main 662 662 O____O___OP_O_ jtwc_sh SH161973 -25.5000 61.3000 -1 -24.9000 61.9000 99 9.90000 -25.5000 61.3000 TC 35 -25.5382 61.2750 2 -24.9000 61.9000 EX 30 12 125
1973024S12054 1973 15 SI MM HORTENSE 1973-02-03 15:00:00 MX -25.5949 62.0582 main 726 726 P____P___PP_P_ SH161973 -25.6918 61.8278 -1 -25.4396 62.4092 99 -25.6918 61.8278 TC 35 -25.7117 61.8172 2 -25.4396 62.4092 EX 30 12 127
1973024S12054 1973 15 SI MM HORTENSE 1973-02-03 18:00:00 MX -25.9800 62.6000 reunion main 792 792 O____O___OO_O_ jtwc_sh SH161973 -25.9000 62.4000 -1 -26.1000 62.9000 99 9.90000 -25.9000 62.4000 TC 35 -25.9000 62.4000 2 -26.1000 62.9000 EX 30 14 129
1973024S12054 1973 15 SI MM HORTENSE 1973-02-03 21:00:00 MX -26.4802 63.2615 main 880 880 P____P___PP_P_ SH161973 -26.0925 63.1203 -1 -27.0475 63.4497 99 -26.0925 63.1203 TC 35 -26.1208 63.1674 2 -27.0475 63.4497 EX 27 15 128
1973024S12054 1973 15 SI MM HORTENSE 1973-02-04 00:00:00 MX -26.9118 63.9496 reunion main 953 953 O____O___OP_O_ jtwc_sh SH161973 -26.3000 63.9000 -1 -28.1000 64.0000 99 9.90000 -26.3000 63.9000 TC 35 -26.3531 63.9731 2 -28.1000 64.0000 EX 25 14 120
1973024S12054 1973 15 SI MM HORTENSE 1973-02-04 03:00:00 MX -27.1948 64.6683 main 1032 1032 P____P___PP_P_ SH161973 -26.5579 64.7096 -1 -29.0802 64.5114 99 -26.5579 64.7096 TC 35 -26.5835 64.7425 2 -29.0802 64.5114 EX 25 13 106
1973024S12054 1973 15 SI MM HORTENSE 1973-02-04 06:00:00 MX -27.2571 65.3429 reunion main 1082 1082 O____O___OO_O_ jtwc_sh SH161973 -26.8000 65.4000 -1 -30.0000 65.0000 6 9.90000 -26.8000 65.4000 TC 35 -26.8000 65.4000 2 -30.0000 65.0000 EX 25 10 77
1973024S12054 1973 15 SI MM HORTENSE 1973-02-04 09:00:00 TS -26.9640 65.8177 main 1097 1097 P________PP___ SH161973 -26.9568 65.8181 -1 6 -26.9568 65.8181 TC 35 -26.9782 65.8168 2 EX 7 78
1973024S12054 1973 15 SI MM HORTENSE 1973-02-04 12:00:00 TS -27.1154 66.1068 main 1127 1127 O________OP___ jtwc_sh SH161973 -27.1000 66.1000 -1 -27.1000 66.1000 TC 35 -27.1461 66.1204 2 6 124
1973024S12054 1973 15 SI MM HORTENSE 1973-02-04 15:00:00 TS -27.3001 66.3814 main 1164 1164 P________PP___ SH161973 -27.2922 66.3777 -1 -27.2922 66.3777 TC 35 -27.3161 66.3886 2 7 126
1973024S12054 1973 15 SI MM HORTENSE 1973-02-04 18:00:00 TS -27.5000 66.7000 main 1202 1202 O________OO___ jtwc_sh SH161973 -27.5000 66.7000 -1 -27.5000 66.7000 TC 35 -27.5000 66.7000 2 8 120
1973024S12054 1973 15 SI MM HORTENSE 1973-02-04 21:00:00 TS -27.6969 67.1470 main 1246 1246 P________PP___ SH161973 -27.6925 67.1627 -1 -27.6925 67.1627 TC 30 -27.7057 67.1156 2 10 115
1973024S12054 1973 15 SI MM HORTENSE 1973-02-05 00:00:00 TS -27.9097 67.6747 main 1307 1307 O________OP___ jtwc_sh SH161973 -27.9000 67.7000 -1 -27.9000 67.7000 TC 25 -27.9290 67.6240 2 11 115
1973024S12054 1973 15 SI MM HORTENSE 1973-02-05 03:00:00 TS -28.1478 68.2314 main 1359 1359 P________PP___ SH161973 -28.1403 68.2494 -1 -28.1403 68.2494 TC 25 -28.1627 68.1955 2 11 116
1973024S12054 1973 15 SI MM HORTENSE 1973-02-05 06:00:00 TS -28.4000 68.8000 main 1426 O________OO___ jtwc_sh SH161973 -28.4000 68.8000 -1 -28.4000 68.8000 TC 25 -28.4000 68.8000 1 11 117

About IBTrACS Database

This database is a web-friendly format of International Best Track Archive for Climate Stewardship (IBTrACS), a global best track data archive curated by NOAA dating back to 1842.

Updated: 2021-12-01